createdAt,value
2023-07-10T00:01:25.791Z,40.27
2023-07-10T00:03:57.464Z,40.77
2023-07-10T00:06:29.317Z,40.27
2023-07-10T00:09:00.817Z,40.83
2023-07-10T00:11:32.627Z,40.74
2023-07-10T00:14:04.168Z,41.47
2023-07-10T00:16:35.708Z,42.53
2023-07-10T00:19:07.211Z,42.80
2023-07-10T00:21:38.725Z,42.75
2023-07-10T00:24:10.607Z,42.57
2023-07-10T00:26:42.122Z,42.63
2023-07-10T00:29:13.930Z,42.33
2023-07-10T00:31:45.406Z,42.27
2023-07-10T00:34:17.221Z,42.54
2023-07-10T00:36:48.716Z,42.12
2023-07-10T00:39:20.508Z,41.89
2023-07-10T00:41:52.007Z,43.63
2023-07-10T00:44:23.782Z,43.72
2023-07-10T00:46:55.348Z,43.34
2023-07-10T00:49:26.887Z,42.71
2023-07-10T00:51:58.362Z,44.31
2023-07-10T00:54:30.175Z,44.22
2023-07-10T00:57:02.021Z,44.27
2023-07-10T00:59:33.981Z,45.31
2023-07-10T01:02:05.932Z,45.28
2023-07-10T01:04:37.461Z,44.23
2023-07-10T01:07:09.276Z,44.30
2023-07-10T01:09:40.786Z,43.28
2023-07-10T01:12:12.622Z,43.50
2023-07-10T01:14:44.114Z,42.71
2023-07-10T01:17:15.913Z,43.02
2023-07-10T01:19:47.393Z,43.44
2023-07-10T01:22:19.070Z,43.24
2023-07-10T01:24:50.596Z,42.86
2023-07-10T01:27:22.408Z,41.56
2023-07-10T01:29:53.950Z,41.97
2023-07-10T01:32:26.451Z,41.74
2023-07-10T01:34:58.007Z,42.29
2023-07-10T01:37:29.507Z,43.17
2023-07-10T01:40:01.411Z,44.63
2023-07-10T01:42:32.921Z,43.82
2023-07-10T01:45:04.704Z,46.09
2023-07-10T01:47:36.291Z,47.67
2023-07-10T01:50:08.123Z,46.85
2023-07-10T01:52:39.613Z,47.27
2023-07-10T01:55:11.266Z,47.98
2023-07-10T01:57:42.755Z,47.72
2023-07-10T02:00:14.571Z,46.36
2023-07-10T02:02:46.142Z,46.27
2023-07-10T02:05:18.010Z,45.89
2023-07-10T02:07:49.538Z,46.72
2023-07-10T02:10:26.473Z,48.40
2023-07-10T02:13:04.162Z,47.83
2023-07-10T02:15:36.124Z,47.05
2023-07-10T02:18:08.019Z,46.95
2023-07-10T02:20:39.545Z,47.81
2023-07-10T02:23:11.275Z,45.87
2023-07-10T02:25:43.188Z,45.96
2023-07-10T02:28:15.430Z,46.25
2023-07-10T02:30:46.922Z,45.74
2023-07-10T02:33:18.734Z,45.45
2023-07-10T02:35:50.239Z,44.65
2023-07-10T02:38:21.735Z,44.49
2023-07-10T02:40:53.218Z,44.74
2023-07-10T02:43:24.717Z,44.14
2023-07-10T02:45:56.241Z,44.70
2023-07-10T02:48:28.060Z,44.27
2023-07-10T02:50:59.754Z,44.82
2023-07-10T02:53:31.617Z,44.83
2023-07-10T02:56:03.519Z,44.88
2023-07-10T02:58:35.269Z,44.77
2023-07-10T03:01:07.335Z,45.18
2023-07-10T03:03:38.851Z,45.19
2023-07-10T03:06:10.909Z,45.37
2023-07-10T03:08:42.404Z,45.78
2023-07-10T03:11:14.231Z,45.84
2023-07-10T03:13:45.768Z,46.00
2023-07-10T03:16:17.550Z,46.02
2023-07-10T03:18:49.123Z,45.75
2023-07-10T03:21:20.944Z,45.73
2023-07-10T03:23:52.445Z,46.08
2023-07-10T03:26:24.446Z,45.85
2023-07-10T03:28:55.948Z,46.09
2023-07-10T03:31:27.750Z,46.44
2023-07-10T03:33:59.235Z,46.28
2023-07-10T03:36:31.078Z,46.03
2023-07-10T03:39:02.592Z,46.58
2023-07-10T03:41:34.547Z,45.91
2023-07-10T03:44:06.144Z,46.20
2023-07-10T03:46:37.742Z,46.39
2023-07-10T03:49:09.282Z,46.35
2023-07-10T03:51:41.074Z,46.42
2023-07-10T03:54:12.573Z,46.48
2023-07-10T03:56:44.093Z,47.03
2023-07-10T03:59:15.581Z,47.31
2023-07-10T04:01:47.342Z,47.12
2023-07-10T04:04:19.036Z,47.49
2023-07-10T04:06:52.543Z,47.42
2023-07-10T04:09:24.293Z,47.65
2023-07-10T04:11:56.099Z,47.10
2023-07-10T04:14:27.618Z,47.06
2023-07-10T04:16:59.524Z,46.59
2023-07-10T04:19:31.035Z,46.51
2023-07-10T04:22:02.818Z,46.17
2023-07-10T04:24:36.477Z,46.05
2023-07-10T04:27:08.626Z,45.65
2023-07-10T04:29:40.121Z,45.33
2023-07-10T04:32:11.867Z,45.83
2023-07-10T04:34:43.364Z,45.12
2023-07-10T04:37:15.121Z,45.07
2023-07-10T04:39:46.604Z,44.66
2023-07-10T04:42:18.435Z,43.98
2023-07-10T04:44:49.941Z,43.55
2023-07-10T04:47:21.529Z,43.04
2023-07-10T04:49:53.078Z,42.38
2023-07-10T04:52:24.862Z,42.24
2023-07-10T04:54:56.370Z,44.91
2023-07-10T04:57:28.194Z,43.96
2023-07-10T04:59:59.690Z,44.58
2023-07-10T05:02:31.681Z,43.21
2023-07-10T05:05:03.374Z,43.39
2023-07-10T05:07:35.243Z,43.71
2023-07-10T05:10:06.739Z,44.25
2023-07-10T05:12:38.313Z,45.08
2023-07-10T05:15:09.798Z,44.62
2023-07-10T05:17:41.566Z,47.04
2023-07-10T05:20:13.108Z,50.59
2023-07-10T05:22:44.922Z,53.92
2023-07-10T05:25:16.430Z,56.24
2023-07-10T05:27:48.348Z,60.48
2023-07-10T05:30:19.839Z,59.40
2023-07-10T05:32:51.634Z,58.64
2023-07-10T05:35:23.113Z,59.88
2023-07-10T05:37:55.019Z,59.71
2023-07-10T05:40:26.502Z,60.09
2023-07-10T05:42:58.269Z,60.13
2023-07-10T05:45:29.790Z,61.45
2023-07-10T05:48:01.866Z,63.18
2023-07-10T05:50:33.392Z,62.65
2023-07-10T05:53:05.436Z,66.78
2023-07-10T05:55:36.945Z,67.97
2023-07-10T05:58:08.903Z,70.14
2023-07-10T06:00:40.400Z,74.15
2023-07-10T06:03:13.520Z,73.67
2023-07-10T06:05:45.015Z,77.04
2023-07-10T06:08:16.887Z,75.25
2023-07-10T06:10:48.373Z,76.55
2023-07-10T06:13:20.316Z,76.20
2023-07-10T06:15:51.881Z,77.17
2023-07-10T06:18:23.569Z,76.89
2023-07-10T06:20:55.051Z,76.28
2023-07-10T06:23:26.818Z,75.47
2023-07-10T06:25:58.329Z,73.45
2023-07-10T06:28:30.122Z,73.32
2023-07-10T06:31:01.732Z,74.96
2023-07-10T06:33:33.639Z,72.33
2023-07-10T06:36:05.339Z,73.69
2023-07-10T06:38:37.371Z,71.52
2023-07-10T06:41:09.008Z,70.03
2023-07-10T06:43:40.833Z,69.25
2023-07-10T06:46:12.372Z,68.77
2023-07-10T06:48:44.177Z,68.08
2023-07-10T06:51:15.682Z,66.20
2023-07-10T06:53:47.455Z,66.08
2023-07-10T06:56:18.979Z,65.51
2023-07-10T06:58:50.764Z,64.52
2023-07-10T07:01:22.355Z,62.84
2023-07-10T07:03:54.140Z,61.86
2023-07-10T07:06:25.739Z,60.74
2023-07-10T07:08:57.444Z,60.76
2023-07-10T07:11:28.959Z,60.31
2023-07-10T07:14:00.836Z,59.53
2023-07-10T07:16:32.400Z,60.33
2023-07-10T07:19:11.674Z,59.29
2023-07-10T07:21:44.154Z,59.04
2023-07-10T07:24:15.938Z,58.72
2023-07-10T07:26:47.478Z,60.39
2023-07-10T07:29:19.725Z,59.65
2023-07-10T07:31:51.217Z,59.29
2023-07-10T07:34:22.730Z,58.21
2023-07-10T07:36:54.224Z,57.08
2023-07-10T07:39:26.140Z,55.57
2023-07-10T07:41:57.651Z,54.35
2023-07-10T07:44:29.488Z,52.00
2023-07-10T07:47:01.083Z,52.06
2023-07-10T07:49:32.620Z,52.58
2023-07-10T07:52:04.144Z,51.72
2023-07-10T07:54:35.843Z,50.75
2023-07-10T07:57:07.337Z,49.59
2023-07-10T07:59:38.856Z,50.52
2023-07-10T08:02:10.391Z,47.23
2023-07-10T08:04:44.367Z,46.86
2023-07-10T08:07:15.942Z,46.63
2023-07-10T08:09:47.726Z,46.13
2023-07-10T08:12:19.225Z,45.43
2023-07-10T08:14:51.125Z,45.74
2023-07-10T08:17:22.661Z,44.29
2023-07-10T08:19:54.811Z,45.37
2023-07-10T08:22:26.347Z,43.66
2023-07-10T08:24:58.297Z,43.28
2023-07-10T08:27:30.127Z,42.70
2023-07-10T08:30:01.977Z,42.93
2023-07-10T08:32:33.741Z,41.93
2023-07-10T08:35:05.261Z,41.50
2023-07-10T08:37:37.213Z,41.72
2023-07-10T08:40:08.750Z,41.31
2023-07-10T08:42:40.251Z,43.15
2023-07-10T08:45:11.753Z,41.82
2023-07-10T08:47:43.561Z,40.88
2023-07-10T08:50:15.094Z,39.51
2023-07-10T08:52:46.624Z,42.98
2023-07-10T08:55:18.309Z,41.42
2023-07-10T08:57:50.279Z,40.98
2023-07-10T09:00:22.264Z,40.16
2023-07-10T09:02:53.787Z,41.85
2023-07-10T09:05:25.650Z,38.13
2023-07-10T09:07:57.151Z,39.84
2023-07-10T09:10:29.013Z,39.70
2023-07-10T09:13:00.541Z,39.45
2023-07-10T09:15:34.088Z,38.49
2023-07-10T09:18:07.458Z,39.52
2023-07-10T09:20:38.996Z,38.86
2023-07-10T09:23:10.749Z,38.61
2023-07-10T09:25:42.266Z,38.57
2023-07-10T09:28:13.810Z,39.98
2023-07-10T09:30:45.307Z,37.89
2023-07-10T09:33:17.205Z,37.55
2023-07-10T09:35:48.731Z,37.17
2023-07-10T09:38:20.542Z,40.38
2023-07-10T09:40:52.129Z,39.36
2023-07-10T09:43:24.082Z,37.37
2023-07-10T09:45:55.660Z,36.72
2023-07-10T09:48:27.596Z,37.34
2023-07-10T09:50:59.480Z,37.00
2023-07-10T09:53:31.216Z,35.68
2023-07-10T09:56:03.416Z,37.05
2023-07-10T09:58:35.111Z,37.53
2023-07-10T10:01:06.956Z,35.82
2023-07-10T10:03:38.488Z,36.68
2023-07-10T10:06:10.469Z,35.82
2023-07-10T10:08:42.004Z,35.24
2023-07-10T10:11:13.998Z,36.19
2023-07-10T10:13:45.526Z,36.00
2023-07-10T10:16:17.465Z,35.09
2023-07-10T10:18:49.342Z,36.18
2023-07-10T10:21:20.938Z,33.89
2023-07-10T10:23:52.798Z,34.65
2023-07-10T10:26:24.314Z,35.90
2023-07-10T10:28:56.171Z,35.99
2023-07-10T10:31:27.774Z,36.59
2023-07-10T10:33:59.528Z,36.59
2023-07-10T10:36:31.023Z,36.64
2023-07-10T10:39:02.910Z,36.17
2023-07-10T10:41:34.418Z,37.00
2023-07-10T10:44:06.172Z,36.16
2023-07-10T10:46:37.722Z,35.66
2023-07-10T10:49:09.282Z,34.96
2023-07-10T10:51:40.795Z,36.04
2023-07-10T10:54:19.791Z,35.30
2023-07-10T10:56:59.409Z,35.00
2023-07-10T10:59:30.921Z,35.05
2023-07-10T11:02:02.782Z,36.25
2023-07-10T11:04:34.284Z,36.39
2023-07-10T11:07:06.140Z,35.81
2023-07-10T11:09:37.697Z,36.65
2023-07-10T11:12:09.600Z,35.65
2023-07-10T11:14:41.098Z,37.53
2023-07-10T11:17:12.601Z,37.51
2023-07-10T11:19:44.110Z,38.31
2023-07-10T11:22:16.107Z,38.35
2023-07-10T11:24:47.594Z,38.27
2023-07-10T11:27:19.272Z,38.60
2023-07-10T11:29:50.754Z,38.50
2023-07-10T11:32:22.727Z,39.07
2023-07-10T11:34:58.875Z,39.98
2023-07-10T11:37:38.733Z,37.30
2023-07-10T11:40:10.759Z,36.95
2023-07-10T11:42:42.331Z,35.94
2023-07-10T11:45:14.255Z,35.80
2023-07-10T11:47:45.808Z,36.61
2023-07-10T11:50:17.685Z,36.14
2023-07-10T11:52:49.204Z,34.35
2023-07-10T11:55:20.727Z,35.34
2023-07-10T11:57:52.211Z,34.63
2023-07-10T12:00:23.894Z,36.42
2023-07-10T12:02:56.047Z,35.29
2023-07-10T12:05:28.139Z,35.76
2023-07-10T12:08:01.800Z,36.34
2023-07-10T12:10:34.665Z,36.12
2023-07-10T12:13:06.552Z,36.13
2023-07-10T12:15:38.045Z,36.16
2023-07-10T12:18:09.659Z,35.90
2023-07-10T12:20:41.211Z,36.35
2023-07-10T12:23:13.340Z,36.53
2023-07-10T12:25:44.840Z,37.02
2023-07-10T12:30:51.299Z,39.27
2023-07-10T12:33:23.086Z,37.38
2023-07-10T12:35:54.901Z,38.92
2023-07-10T12:38:26.458Z,38.94
2023-07-10T12:40:58.317Z,40.61
2023-07-10T12:43:29.856Z,40.28
2023-07-10T12:46:01.768Z,43.29
2023-07-10T12:48:33.379Z,44.50
2023-07-10T12:51:05.288Z,43.77
2023-07-10T12:53:36.800Z,45.70
2023-07-10T12:56:10.193Z,45.86
2023-07-10T12:58:42.023Z,46.08
2023-07-10T13:01:13.814Z,45.34
2023-07-10T13:03:45.742Z,43.66
2023-07-10T13:06:17.326Z,42.54
2023-07-10T13:08:49.162Z,46.92
2023-07-10T13:11:28.542Z,46.32
2023-07-10T13:14:14.581Z,44.81
2023-07-10T13:16:46.891Z,44.14
2023-07-10T13:19:18.592Z,43.26
2023-07-10T13:21:50.115Z,44.79
2023-07-10T13:24:21.925Z,44.39
2023-07-10T13:26:53.447Z,44.04
2023-07-10T13:29:25.328Z,46.68
2023-07-10T13:31:56.946Z,46.66
2023-07-10T13:34:28.542Z,47.18
2023-07-10T13:37:00.403Z,48.84
2023-07-10T13:39:31.906Z,46.90
2023-07-10T13:42:03.752Z,47.30
2023-07-10T13:44:35.230Z,47.23
2023-07-10T13:47:07.068Z,44.90
2023-07-10T13:49:38.565Z,43.86
2023-07-10T13:52:10.352Z,42.82
2023-07-10T13:54:41.905Z,45.35
2023-07-10T13:57:13.727Z,46.67
2023-07-10T13:59:45.541Z,48.41
2023-07-10T14:02:17.351Z,46.33
2023-07-10T14:04:49.213Z,48.62
2023-07-10T14:07:20.700Z,49.20
2023-07-10T14:09:52.674Z,49.13
2023-07-10T14:12:24.531Z,48.64
2023-07-10T14:14:57.313Z,47.12
2023-07-10T14:17:28.844Z,48.02
2023-07-10T14:20:00.734Z,49.56
2023-07-10T14:22:32.220Z,49.91
2023-07-10T14:25:04.112Z,48.72
2023-07-10T14:27:36.080Z,48.68
2023-07-10T14:30:07.919Z,47.81
2023-07-10T14:32:39.488Z,47.97
2023-07-10T14:35:11.006Z,45.13
2023-07-10T14:37:42.588Z,45.12
2023-07-10T14:40:14.095Z,45.34
2023-07-10T14:42:45.608Z,44.32
2023-07-10T14:45:17.125Z,44.50
2023-07-10T14:47:48.999Z,45.14
2023-07-10T14:50:20.505Z,43.99
2023-07-10T14:52:52.011Z,44.42
2023-07-10T14:55:23.810Z,44.75
2023-07-10T14:57:55.323Z,45.45
2023-07-10T15:00:27.151Z,46.06
2023-07-10T15:02:58.700Z,43.64
2023-07-10T15:05:30.481Z,44.14
2023-07-10T15:08:01.973Z,42.77
2023-07-10T15:10:33.747Z,41.85
2023-07-10T15:13:05.228Z,42.08
2023-07-10T15:15:37.012Z,43.94
2023-07-10T15:18:08.537Z,43.93
2023-07-10T15:20:40.115Z,44.44
2023-07-10T15:23:11.631Z,45.36
2023-07-10T15:25:43.161Z,43.62
2023-07-10T15:28:15.009Z,42.04
2023-07-10T15:30:46.515Z,44.78
2023-07-10T15:33:18.286Z,45.60
2023-07-10T15:35:49.764Z,45.14
2023-07-10T15:38:21.518Z,45.23
2023-07-10T15:40:53.054Z,45.07
2023-07-10T15:43:25.478Z,42.75
2023-07-10T15:45:57.009Z,41.76
2023-07-10T15:48:29.035Z,40.79
2023-07-10T15:51:00.575Z,39.89
2023-07-10T15:53:32.441Z,38.95
2023-07-10T15:56:04.268Z,40.74
2023-07-10T15:58:36.138Z,40.61
2023-07-10T16:01:08.166Z,39.95
2023-07-10T16:03:39.939Z,41.13
2023-07-10T16:06:11.777Z,42.00
2023-07-10T16:08:43.276Z,43.98
2023-07-10T16:11:14.961Z,43.58
2023-07-10T16:13:46.641Z,43.93
2023-07-10T16:16:18.736Z,44.08
2023-07-10T16:18:53.306Z,43.46
2023-07-10T16:21:25.141Z,44.68
2023-07-10T16:23:56.632Z,44.35
2023-07-10T16:26:28.535Z,44.48
2023-07-10T16:29:00.213Z,44.61
2023-07-10T16:31:31.754Z,44.51
2023-07-10T16:34:03.874Z,44.67
2023-07-10T16:36:35.395Z,45.10
2023-07-10T16:39:07.276Z,45.80
2023-07-10T16:41:38.837Z,46.23
2023-07-10T16:44:10.734Z,45.94
2023-07-10T16:46:42.319Z,46.28
2023-07-10T16:49:13.881Z,46.49
2023-07-10T16:51:45.552Z,46.28
2023-07-10T16:54:17.461Z,46.73
2023-07-10T16:56:49.173Z,47.17
2023-07-10T16:59:20.673Z,47.74
2023-07-10T17:01:52.593Z,47.82
2023-07-10T17:04:24.112Z,48.83
2023-07-10T17:06:55.612Z,48.02
2023-07-10T17:09:27.099Z,47.55
2023-07-10T17:11:58.921Z,47.34
2023-07-10T17:14:30.450Z,46.21
2023-07-10T17:17:02.335Z,46.52
2023-07-10T17:19:33.922Z,45.40
2023-07-10T17:22:05.559Z,45.14
2023-07-10T17:24:37.214Z,45.39
2023-07-10T17:27:09.027Z,45.91
2023-07-10T17:29:40.529Z,46.02
2023-07-10T17:32:13.136Z,46.64
2023-07-10T17:34:44.737Z,46.13
2023-07-10T17:37:16.379Z,47.17
2023-07-10T17:39:48.358Z,47.53
2023-07-10T17:42:19.860Z,48.13
2023-07-10T17:44:51.587Z,48.05
2023-07-10T17:47:23.128Z,48.70
2023-07-10T17:49:55.291Z,48.07
2023-07-10T17:52:26.894Z,48.34
2023-07-10T17:54:58.835Z,48.36
2023-07-10T17:57:30.699Z,48.20
2023-07-10T18:00:02.227Z,48.17
2023-07-10T18:02:36.662Z,48.01
2023-07-10T18:05:08.309Z,48.03
2023-07-10T18:07:39.866Z,48.15
2023-07-10T18:10:11.378Z,48.15
2023-07-10T18:12:42.883Z,48.28
2023-07-10T18:15:14.387Z,48.24
2023-07-10T18:17:46.042Z,48.47
2023-07-10T18:20:17.659Z,48.47
2023-07-10T18:22:49.188Z,48.77
2023-07-10T18:25:21.062Z,48.82
2023-07-10T18:27:52.574Z,48.12
2023-07-10T18:30:24.286Z,48.36
2023-07-10T18:32:55.801Z,48.07
2023-07-10T18:35:27.775Z,47.93
2023-07-10T18:37:59.273Z,47.46
2023-07-10T18:40:31.130Z,47.81
2023-07-10T18:43:02.661Z,48.25
2023-07-10T18:45:34.515Z,48.12
2023-07-10T18:48:06.069Z,48.69
2023-07-10T18:50:37.597Z,48.61
2023-07-10T18:53:09.099Z,49.35
2023-07-10T18:55:40.685Z,49.45
2023-07-10T18:58:12.375Z,49.03
2023-07-10T19:00:43.906Z,49.24
2023-07-10T19:03:15.836Z,49.32
2023-07-10T19:05:47.366Z,49.16
2023-07-10T19:08:18.887Z,49.51
2023-07-10T19:10:50.368Z,49.44
2023-07-10T19:13:22.238Z,50.20
2023-07-10T19:15:53.769Z,50.36
2023-07-10T19:18:25.496Z,50.54
2023-07-10T19:20:57.363Z,50.75
2023-07-10T19:23:28.965Z,50.65
2023-07-10T19:26:00.493Z,50.84
2023-07-10T19:28:32.583Z,51.54
2023-07-10T19:31:04.825Z,51.66
2023-07-10T19:33:36.970Z,52.20
2023-07-10T19:36:08.807Z,52.16
2023-07-10T19:38:40.288Z,51.98
2023-07-10T19:41:11.945Z,52.39
2023-07-10T19:43:43.461Z,52.38
2023-07-10T19:46:15.344Z,52.59
2023-07-10T19:48:46.875Z,52.93
2023-07-10T19:51:18.877Z,52.82
2023-07-10T19:53:50.411Z,52.91
2023-07-10T19:56:22.275Z,52.81
2023-07-10T19:58:53.786Z,53.38
2023-07-10T20:01:25.741Z,53.92
2023-07-10T20:03:57.278Z,53.74
2023-07-10T20:06:29.194Z,54.44
2023-07-10T20:09:00.953Z,54.17
2023-07-10T20:11:32.459Z,54.60
2023-07-10T20:14:04.367Z,54.87
2023-07-10T20:16:36.079Z,55.23
2023-07-10T20:19:08.219Z,55.30
2023-07-10T20:21:39.747Z,55.12
2023-07-10T20:24:11.587Z,55.37
2023-07-10T20:26:43.068Z,56.17
2023-07-10T20:29:14.736Z,55.93
2023-07-10T20:31:46.209Z,56.01
2023-07-10T20:34:18.147Z,56.22
2023-07-10T20:36:49.693Z,56.12
2023-07-10T20:39:21.197Z,56.55
2023-07-10T20:41:55.662Z,56.89
2023-07-10T20:44:27.148Z,57.37
2023-07-10T20:46:59.027Z,57.71
2023-07-10T20:49:30.734Z,57.94
2023-07-10T20:52:05.192Z,57.71
2023-07-10T20:54:36.687Z,57.93
2023-07-10T20:57:08.386Z,57.62
2023-07-10T20:59:39.921Z,57.81
2023-07-10T21:02:11.783Z,57.11
2023-07-10T21:04:43.357Z,57.85
2023-07-10T21:07:14.849Z,58.22
2023-07-10T21:09:47.823Z,58.34
2023-07-10T21:12:19.472Z,58.44
2023-07-10T21:14:51.185Z,58.30
2023-07-10T21:17:22.687Z,57.74
2023-07-10T21:19:54.308Z,58.03
2023-07-10T21:22:25.801Z,57.88
2023-07-10T21:24:57.533Z,58.17
2023-07-10T21:27:29.377Z,58.35
2023-07-10T21:30:01.474Z,58.05
2023-07-10T21:32:33.415Z,57.76
2023-07-10T21:35:05.052Z,58.32
2023-07-10T21:37:36.923Z,57.79
2023-07-10T21:40:08.432Z,57.96
2023-07-10T21:42:39.937Z,57.99
2023-07-10T21:45:11.445Z,57.15
2023-07-10T21:47:42.975Z,57.05
2023-07-10T21:50:14.500Z,57.20
2023-07-10T21:52:46.000Z,57.37
2023-07-10T21:55:17.613Z,57.25
2023-07-10T21:57:49.108Z,57.18
2023-07-10T22:00:21.069Z,57.28
2023-07-10T22:02:52.670Z,57.59
2023-07-10T22:05:24.729Z,57.97
2023-07-10T22:07:56.223Z,58.24
2023-07-10T22:10:28.078Z,58.79
2023-07-10T22:12:59.584Z,59.34
2023-07-10T22:15:31.359Z,59.62
2023-07-10T22:18:02.864Z,60.12
2023-07-10T22:20:34.724Z,60.27
2023-07-10T22:23:06.568Z,60.90
2023-07-10T22:25:38.079Z,61.10
2023-07-10T22:28:09.774Z,61.48
2023-07-10T22:30:41.279Z,61.68
2023-07-10T22:33:12.951Z,62.80
2023-07-10T22:35:44.484Z,63.37
2023-07-10T22:38:16.341Z,63.49
2023-07-10T22:40:47.827Z,63.40
2023-07-10T22:43:19.721Z,64.11
2023-07-10T22:45:51.258Z,64.10
2023-07-10T22:48:22.773Z,64.22
2023-07-10T22:50:54.280Z,64.43
2023-07-10T22:53:26.201Z,64.90
2023-07-10T22:55:58.010Z,64.96
2023-07-10T22:58:30.076Z,65.11
2023-07-10T23:01:01.975Z,65.14
2023-07-10T23:03:33.588Z,66.10
2023-07-10T23:06:05.523Z,66.51
2023-07-10T23:08:37.184Z,66.48
2023-07-10T23:11:09.008Z,66.98
2023-07-10T23:13:40.570Z,67.03
2023-07-10T23:16:12.436Z,67.33
2023-07-10T23:18:44.000Z,67.43
2023-07-10T23:21:16.003Z,67.14
2023-07-10T23:23:47.523Z,67.54
2023-07-10T23:26:19.389Z,68.17
2023-07-10T23:28:51.332Z,68.34
2023-07-10T23:31:22.907Z,68.87
2023-07-10T23:33:54.870Z,69.34
2023-07-10T23:36:26.412Z,69.46
2023-07-10T23:38:58.293Z,69.71
2023-07-10T23:41:29.829Z,69.81
2023-07-10T23:44:01.720Z,69.72
2023-07-10T23:46:33.234Z,69.96
2023-07-10T23:49:05.250Z,70.00
2023-07-10T23:51:36.762Z,69.50
2023-07-10T23:54:08.654Z,69.64
2023-07-10T23:56:40.167Z,69.90
2023-07-10T23:59:11.655Z,69.40
